Terminal Aerodrome Forecast
Issued by NWS Lake Charles, LA

Home | Current Version | Previous Version | Text Only | Print | Product List | Glossary On
Versions: 1 2 3 4 5 6 7 8 9 10 11 12 13 14 15 16 17 18 19 20 21 22
012
FTUS44 KLCH 191645 AAD
TAFLCH
TAF AMD
KLCH 191645Z 1917/2012 12009KT P6SM BKN010 OVC017
     FM191800 15014G20KT P6SM BKN050
     FM200100 13010KT 5SM BR OVC004=

USA.gov is the U.S. government's official web portal to all federal, state and local government web resources and services.